sensor_id;sensor_type;location;lat;lon;timestamp;pressure;altitude;pressure_sealevel;temperature;humidity
11339;BME280;5724;42.684;23.252;2023-12-20T00:00:48;94704.75;;;0.12;100.00
11339;BME280;5724;42.684;23.252;2023-12-20T00:03:14;94698.22;;;-0.06;100.00
11339;BME280;5724;42.684;23.252;2023-12-20T00:05:40;94703.59;;;-0.06;100.00
11339;BME280;5724;42.684;23.252;2023-12-20T00:08:06;94699.81;;;-0.05;100.00
11339;BME280;5724;42.684;23.252;2023-12-20T00:10:32;94694.94;;;-0.03;100.00
11339;BME280;5724;42.684;23.252;2023-12-20T00:12:57;94687.75;;;-0.07;100.00
11339;BME280;5724;42.684;23.252;2023-12-20T00:15:22;94685.88;;;-0.07;100.00
11339;BME280;5724;42.684;23.252;2023-12-20T00:17:48;94686.91;;;-0.03;100.00
11339;BME280;5724;42.684;23.252;2023-12-20T00:20:14;94676.16;;;-0.03;100.00
11339;BME280;5724;42.684;23.252;2023-12-20T00:22:39;94677.22;;;0.02;100.00
11339;BME280;5724;42.684;23.252;2023-12-20T00:25:05;94677.13;;;0.07;100.00
11339;BME280;5724;42.684;23.252;2023-12-20T00:27:30;94673.38;;;0.08;100.00
11339;BME280;5724;42.684;23.252;2023-12-20T00:29:56;94662.00;;;0.16;100.00
11339;BME280;5724;42.684;23.252;2023-12-20T00:32:21;94655.53;;;0.17;100.00
11339;BME280;5724;42.684;23.252;2023-12-20T00:34:47;94644.78;;;0.17;100.00
11339;BME280;5724;42.684;23.252;2023-12-20T00:37:12;94648.28;;;0.17;100.00
11339;BME280;5724;42.684;23.252;2023-12-20T00:39:38;94640.50;;;0.16;100.00
11339;BME280;5724;42.684;23.252;2023-12-20T00:42:03;94642.59;;;0.19;100.00
11339;BME280;5724;42.684;23.252;2023-12-20T00:44:29;94642.69;;;0.14;100.00
11339;BME280;5724;42.684;23.252;2023-12-20T00:46:54;94646.22;;;0.09;100.00
11339;BME280;5724;42.684;23.252;2023-12-20T00:49:20;94644.03;;;-0.13;100.00
11339;BME280;5724;42.684;23.252;2023-12-20T00:51:45;94637.16;;;-0.24;100.00
11339;BME280;5724;42.684;23.252;2023-12-20T00:54:12;94638.28;;;-0.30;100.00
11339;BME280;5724;42.684;23.252;2023-12-20T00:56:37;94644.19;;;-0.28;100.00
11339;BME280;5724;42.684;23.252;2023-12-20T00:59:03;94640.94;;;-0.54;100.00
11339;BME280;5724;42.684;23.252;2023-12-20T01:01:28;94638.47;;;-0.50;100.00
11339;BME280;5724;42.684;23.252;2023-12-20T01:03:54;94630.69;;;-0.47;100.00
11339;BME280;5724;42.684;23.252;2023-12-20T01:06:20;94629.91;;;-0.52;100.00
11339;BME280;5724;42.684;23.252;2023-12-20T01:08:46;94626.94;;;-0.51;100.00
11339;BME280;5724;42.684;23.252;2023-12-20T01:11:11;94616.22;;;-0.51;100.00
11339;BME280;5724;42.684;23.252;2023-12-20T01:13:37;94612.69;;;-0.46;100.00
11339;BME280;5724;42.684;23.252;2023-12-20T01:16:02;94619.66;;;-0.45;100.00
11339;BME280;5724;42.684;23.252;2023-12-20T01:18:28;94616.38;;;-0.37;100.00
11339;BME280;5724;42.684;23.252;2023-12-20T01:20:53;94617.38;;;-0.33;100.00
11339;BME280;5724;42.684;23.252;2023-12-20T01:23:19;94610.41;;;-0.34;100.00
11339;BME280;5724;42.684;23.252;2023-12-20T01:25:46;94607.72;;;-0.34;100.00
11339;BME280;5724;42.684;23.252;2023-12-20T01:28:13;94595.97;;;-0.38;100.00
11339;BME280;5724;42.684;23.252;2023-12-20T01:30:38;94595.00;;;-0.47;100.00
11339;BME280;5724;42.684;23.252;2023-12-20T01:33:04;94599.72;;;-0.39;100.00
11339;BME280;5724;42.684;23.252;2023-12-20T01:35:29;94591.63;;;-0.34;100.00
11339;BME280;5724;42.684;23.252;2023-12-20T01:37:55;94588.06;;;-0.30;100.00
11339;BME280;5724;42.684;23.252;2023-12-20T01:40:23;94583.25;;;-0.27;100.00
11339;BME280;5724;42.684;23.252;2023-12-20T01:43:09;94574.44;;;-0.33;100.00
11339;BME280;5724;42.684;23.252;2023-12-20T01:45:35;94566.44;;;-0.38;100.00
11339;BME280;5724;42.684;23.252;2023-12-20T01:48:01;94570.66;;;-0.32;100.00
11339;BME280;5724;42.684;23.252;2023-12-20T01:50:28;94571.88;;;-0.48;100.00
11339;BME280;5724;42.684;23.252;2023-12-20T01:52:55;94568.00;;;-0.61;100.00
11339;BME280;5724;42.684;23.252;2023-12-20T01:55:23;94562.22;;;-0.73;100.00
11339;BME280;5724;42.684;23.252;2023-12-20T01:57:49;94549.59;;;-0.73;100.00
11339;BME280;5724;42.684;23.252;2023-12-20T02:00:15;94559.13;;;-0.56;100.00
11339;BME280;5724;42.684;23.252;2023-12-20T02:02:43;94560.72;;;-0.55;100.00
11339;BME280;5724;42.684;23.252;2023-12-20T02:05:10;94546.03;;;-0.63;100.00
11339;BME280;5724;42.684;23.252;2023-12-20T02:07:36;94546.31;;;-0.65;100.00
11339;BME280;5724;42.684;23.252;2023-12-20T02:10:02;94554.97;;;-0.73;100.00
11339;BME280;5724;42.684;23.252;2023-12-20T02:12:30;94544.56;;;-0.79;100.00
11339;BME280;5724;42.684;23.252;2023-12-20T02:14:55;94548.00;;;-0.74;100.00
11339;BME280;5724;42.684;23.252;2023-12-20T02:17:21;94546.94;;;-0.78;100.00
11339;BME280;5724;42.684;23.252;2023-12-20T02:19:47;94539.44;;;-0.76;100.00
11339;BME280;5724;42.684;23.252;2023-12-20T02:22:13;94539.16;;;-0.74;100.00
11339;BME280;5724;42.684;23.252;2023-12-20T02:24:38;94536.00;;;-0.81;100.00
11339;BME280;5724;42.684;23.252;2023-12-20T02:27:06;94527.63;;;-0.75;100.00
11339;BME280;5724;42.684;23.252;2023-12-20T02:29:35;94519.00;;;-0.72;100.00
11339;BME280;5724;42.684;23.252;2023-12-20T02:32:01;94524.09;;;-0.70;100.00
11339;BME280;5724;42.684;23.252;2023-12-20T02:34:27;94513.72;;;-0.77;100.00
11339;BME280;5724;42.684;23.252;2023-12-20T02:36:52;94518.09;;;-0.86;100.00
11339;BME280;5724;42.684;23.252;2023-12-20T02:39:18;94511.03;;;-0.77;100.00
11339;BME280;5724;42.684;23.252;2023-12-20T02:41:44;94488.13;;;-0.98;100.00
11339;BME280;5724;42.684;23.252;2023-12-20T02:44:10;94506.88;;;-0.93;100.00
11339;BME280;5724;42.684;23.252;2023-12-20T02:46:35;94520.31;;;-0.98;100.00
11339;BME280;5724;42.684;23.252;2023-12-20T02:49:00;94509.47;;;-1.17;100.00
11339;BME280;5724;42.684;23.252;2023-12-20T02:51:26;94504.38;;;-1.13;100.00
11339;BME280;5724;42.684;23.252;2023-12-20T02:53:51;94509.69;;;-1.08;100.00
11339;BME280;5724;42.684;23.252;2023-12-20T02:56:17;94504.09;;;-1.12;100.00
11339;BME280;5724;42.684;23.252;2023-12-20T02:58:42;94513.41;;;-1.04;100.00
11339;BME280;5724;42.684;23.252;2023-12-20T03:01:09;94518.44;;;-0.98;100.00
11339;BME280;5724;42.684;23.252;2023-12-20T03:03:35;94511.47;;;-0.99;100.00
11339;BME280;5724;42.684;23.252;2023-12-20T03:06:00;94506.06;;;-0.94;100.00
11339;BME280;5724;42.684;23.252;2023-12-20T03:08:26;94503.22;;;-1.07;100.00
11339;BME280;5724;42.684;23.252;2023-12-20T03:10:51;94496.78;;;-1.06;100.00
11339;BME280;5724;42.684;23.252;2023-12-20T03:13:18;94490.97;;;-1.13;100.00
11339;BME280;5724;42.684;23.252;2023-12-20T03:15:43;94500.53;;;-1.02;100.00
11339;BME280;5724;42.684;23.252;2023-12-20T03:18:09;94511.06;;;-1.11;100.00
11339;BME280;5724;42.684;23.252;2023-12-20T03:20:35;94499.09;;;-1.24;100.00
11339;BME280;5724;42.684;23.252;2023-12-20T03:23:00;94502.09;;;-1.30;100.00
11339;BME280;5724;42.684;23.252;2023-12-20T03:25:27;94501.53;;;-1.27;100.00
11339;BME280;5724;42.684;23.252;2023-12-20T03:27:53;94485.03;;;-1.39;100.00
11339;BME280;5724;42.684;23.252;2023-12-20T03:30:18;94481.22;;;-1.33;100.00
11339;BME280;5724;42.684;23.252;2023-12-20T03:32:44;94484.06;;;-1.20;100.00
11339;BME280;5724;42.684;23.252;2023-12-20T03:35:10;94489.69;;;-1.21;100.00
11339;BME280;5724;42.684;23.252;2023-12-20T03:37:36;94488.97;;;-1.32;100.00
11339;BME280;5724;42.684;23.252;2023-12-20T03:40:01;94480.34;;;-1.24;100.00
11339;BME280;5724;42.684;23.252;2023-12-20T03:42:27;94486.00;;;-1.25;100.00
11339;BME280;5724;42.684;23.252;2023-12-20T03:44:52;94485.72;;;-1.29;100.00
11339;BME280;5724;42.684;23.252;2023-12-20T03:47:18;94483.72;;;-1.42;100.00
11339;BME280;5724;42.684;23.252;2023-12-20T03:49:43;94481.03;;;-1.42;100.00
11339;BME280;5724;42.684;23.252;2023-12-20T03:52:09;94473.28;;;-1.49;100.00
11339;BME280;5724;42.684;23.252;2023-12-20T03:54:38;94486.50;;;-1.57;100.00
11339;BME280;5724;42.684;23.252;2023-12-20T03:57:04;94484.16;;;-1.64;100.00
11339;BME280;5724;42.684;23.252;2023-12-20T03:59:30;94479.03;;;-1.60;100.00
11339;BME280;5724;42.684;23.252;2023-12-20T04:01:55;94469.69;;;-1.68;100.00
11339;BME280;5724;42.684;23.252;2023-12-20T04:04:21;94461.97;;;-1.75;100.00
11339;BME280;5724;42.684;23.252;2023-12-20T04:06:46;94460.91;;;-1.74;100.00
11339;BME280;5724;42.684;23.252;2023-12-20T04:09:12;94454.41;;;-1.67;100.00
11339;BME280;5724;42.684;23.252;2023-12-20T04:11:37;94458.75;;;-1.71;100.00
11339;BME280;5724;42.684;23.252;2023-12-20T04:14:03;94452.03;;;-1.74;100.00
11339;BME280;5724;42.684;23.252;2023-12-20T04:16:30;94454.22;;;-1.76;100.00
11339;BME280;5724;42.684;23.252;2023-12-20T04:18:56;94446.97;;;-1.76;100.00
11339;BME280;5724;42.684;23.252;2023-12-20T04:21:21;94440.38;;;-1.88;100.00
11339;BME280;5724;42.684;23.252;2023-12-20T04:23:47;94445.44;;;-1.82;100.00
11339;BME280;5724;42.684;23.252;2023-12-20T04:26:12;94431.31;;;-1.92;100.00
11339;BME280;5724;42.684;23.252;2023-12-20T04:28:38;94450.22;;;-1.79;100.00
11339;BME280;5724;42.684;23.252;2023-12-20T04:31:03;94440.59;;;-1.80;100.00
11339;BME280;5724;42.684;23.252;2023-12-20T04:33:28;94431.63;;;-1.99;100.00
11339;BME280;5724;42.684;23.252;2023-12-20T04:35:54;94425.53;;;-2.10;100.00
11339;BME280;5724;42.684;23.252;2023-12-20T04:38:20;94426.75;;;-1.92;100.00
11339;BME280;5724;42.684;23.252;2023-12-20T04:40:47;94414.25;;;-2.02;100.00
11339;BME280;5724;42.684;23.252;2023-12-20T04:43:13;94419.31;;;-2.00;100.00
11339;BME280;5724;42.684;23.252;2023-12-20T04:45:38;94432.19;;;-2.02;100.00
11339;BME280;5724;42.684;23.252;2023-12-20T04:48:04;94431.63;;;-2.04;100.00
11339;BME280;5724;42.684;23.252;2023-12-20T04:50:30;94439.16;;;-2.06;100.00
11339;BME280;5724;42.684;23.252;2023-12-20T04:52:55;94425.47;;;-2.05;100.00
11339;BME280;5724;42.684;23.252;2023-12-20T04:55:21;94426.03;;;-2.03;100.00
11339;BME280;5724;42.684;23.252;2023-12-20T04:57:46;94421.72;;;-1.98;100.00
11339;BME280;5724;42.684;23.252;2023-12-20T05:00:12;94424.16;;;-2.02;100.00
11339;BME280;5724;42.684;23.252;2023-12-20T05:02:39;94419.91;;;-2.13;100.00
11339;BME280;5724;42.684;23.252;2023-12-20T05:05:05;94416.72;;;-2.15;100.00
11339;BME280;5724;42.684;23.252;2023-12-20T05:07:30;94421.63;;;-2.33;100.00
11339;BME280;5724;42.684;23.252;2023-12-20T05:09:56;94423.59;;;-2.48;100.00
11339;BME280;5724;42.684;23.252;2023-12-20T05:12:21;94425.44;;;-2.44;100.00
11339;BME280;5724;42.684;23.252;2023-12-20T05:14:47;94419.06;;;-2.48;100.00
11339;BME280;5724;42.684;23.252;2023-12-20T05:17:12;94417.13;;;-2.42;100.00
11339;BME280;5724;42.684;23.252;2023-12-20T05:19:38;94415.25;;;-2.42;100.00
11339;BME280;5724;42.684;23.252;2023-12-20T05:22:04;94406.25;;;-2.51;100.00
11339;BME280;5724;42.684;23.252;2023-12-20T05:24:29;94412.97;;;-2.58;100.00
11339;BME280;5724;42.684;23.252;2023-12-20T05:26:55;94408.38;;;-2.53;100.00
11339;BME280;5724;42.684;23.252;2023-12-20T05:29:20;94402.44;;;-2.45;100.00
11339;BME280;5724;42.684;23.252;2023-12-20T05:31:46;94409.38;;;-2.44;100.00
11339;BME280;5724;42.684;23.252;2023-12-20T05:34:11;94401.69;;;-2.50;100.00
11339;BME280;5724;42.684;23.252;2023-12-20T05:36:37;94401.09;;;-2.42;100.00
11339;BME280;5724;42.684;23.252;2023-12-20T05:39:03;94375.78;;;-2.60;100.00
11339;BME280;5724;42.684;23.252;2023-12-20T05:41:33;94401.88;;;-2.42;100.00
11339;BME280;5724;42.684;23.252;2023-12-20T05:43:59;94395.50;;;-2.46;100.00
11339;BME280;5724;42.684;23.252;2023-12-20T05:46:26;94397.66;;;-2.48;100.00
11339;BME280;5724;42.684;23.252;2023-12-20T05:48:51;94398.25;;;-2.61;100.00
11339;BME280;5724;42.684;23.252;2023-12-20T05:51:17;94391.84;;;-2.70;100.00
11339;BME280;5724;42.684;23.252;2023-12-20T05:53:44;94391.91;;;-2.75;100.00
11339;BME280;5724;42.684;23.252;2023-12-20T05:56:09;94377.31;;;-2.98;100.00
11339;BME280;5724;42.684;23.252;2023-12-20T05:58:38;94380.25;;;-3.10;100.00
11339;BME280;5724;42.684;23.252;2023-12-20T06:01:04;94388.28;;;-3.05;100.00
11339;BME280;5724;42.684;23.252;2023-12-20T06:03:31;94383.72;;;-3.04;100.00
11339;BME280;5724;42.684;23.252;2023-12-20T06:05:56;94378.94;;;-3.12;100.00
11339;BME280;5724;42.684;23.252;2023-12-20T06:08:22;94382.72;;;-3.29;100.00
11339;BME280;5724;42.684;23.252;2023-12-20T06:10:49;94386.97;;;-3.18;100.00
11339;BME280;5724;42.684;23.252;2023-12-20T06:13:14;94375.72;;;-3.09;100.00
11339;BME280;5724;42.684;23.252;2023-12-20T06:15:40;94379.19;;;-3.04;100.00
11339;BME280;5724;42.684;23.252;2023-12-20T06:18:06;94386.47;;;-3.30;100.00
11339;BME280;5724;42.684;23.252;2023-12-20T06:20:32;94381.91;;;-3.29;100.00
11339;BME280;5724;42.684;23.252;2023-12-20T06:22:58;94395.31;;;-3.34;100.00
11339;BME280;5724;42.684;23.252;2023-12-20T06:25:24;94389.19;;;-3.55;100.00
11339;BME280;5724;42.684;23.252;2023-12-20T06:27:49;94390.53;;;-3.68;100.00
11339;BME280;5724;42.684;23.252;2023-12-20T06:30:15;94392.44;;;-3.84;100.00
11339;BME280;5724;42.684;23.252;2023-12-20T06:32:41;94390.00;;;-3.80;100.00
11339;BME280;5724;42.684;23.252;2023-12-20T06:35:08;94385.75;;;-4.01;100.00
11339;BME280;5724;42.684;23.252;2023-12-20T06:37:34;94377.72;;;-3.96;100.00
11339;BME280;5724;42.684;23.252;2023-12-20T06:39:59;94385.50;;;-3.95;100.00
11339;BME280;5724;42.684;23.252;2023-12-20T06:42:25;94376.41;;;-3.89;100.00
11339;BME280;5724;42.684;23.252;2023-12-20T06:44:50;94375.06;;;-3.66;100.00
11339;BME280;5724;42.684;23.252;2023-12-20T06:47:16;94374.50;;;-3.58;100.00
11339;BME280;5724;42.684;23.252;2023-12-20T06:49:41;94369.41;;;-3.49;100.00
11339;BME280;5724;42.684;23.252;2023-12-20T06:52:07;94370.97;;;-3.38;100.00
11339;BME280;5724;42.684;23.252;2023-12-20T06:54:32;94357.91;;;-3.34;100.00
11339;BME280;5724;42.684;23.252;2023-12-20T06:57:00;94365.34;;;-3.21;100.00
11339;BME280;5724;42.684;23.252;2023-12-20T06:59:25;94360.22;;;-3.07;100.00
11339;BME280;5724;42.684;23.252;2023-12-20T07:01:51;94361.31;;;-3.08;100.00
11339;BME280;5724;42.684;23.252;2023-12-20T07:04:17;94356.13;;;-2.90;100.00
11339;BME280;5724;42.684;23.252;2023-12-20T07:06:47;94359.28;;;-2.77;100.00
11339;BME280;5724;42.684;23.252;2023-12-20T07:09:13;94351.56;;;-2.79;100.00
11339;BME280;5724;42.684;23.252;2023-12-20T07:11:39;94350.19;;;-2.81;100.00
11339;BME280;5724;42.684;23.252;2023-12-20T07:14:05;94354.47;;;-2.75;100.00
11339;BME280;5724;42.684;23.252;2023-12-20T07:16:31;94345.25;;;-2.54;100.00
11339;BME280;5724;42.684;23.252;2023-12-20T07:18:56;94347.97;;;-2.59;100.00
11339;BME280;5724;42.684;23.252;2023-12-20T07:21:22;94346.31;;;-2.55;100.00
11339;BME280;5724;42.684;23.252;2023-12-20T07:23:48;94341.94;;;-2.36;100.00
11339;BME280;5724;42.684;23.252;2023-12-20T07:26:13;94338.22;;;-2.06;100.00
11339;BME280;5724;42.684;23.252;2023-12-20T07:28:39;94339.28;;;-2.02;100.00
11339;BME280;5724;42.684;23.252;2023-12-20T07:31:05;94337.91;;;-1.99;100.00
11339;BME280;5724;42.684;23.252;2023-12-20T07:33:31;94340.03;;;-1.96;100.00
11339;BME280;5724;42.684;23.252;2023-12-20T07:35:56;94326.03;;;-1.88;100.00
11339;BME280;5724;42.684;23.252;2023-12-20T07:38:22;94334.97;;;-1.68;100.00
11339;BME280;5724;42.684;23.252;2023-12-20T07:40:47;94339.81;;;-1.41;100.00
11339;BME280;5724;42.684;23.252;2023-12-20T07:43:13;94327.81;;;-1.49;100.00
11339;BME280;5724;42.684;23.252;2023-12-20T07:45:39;94310.44;;;-1.81;100.00
11339;BME280;5724;42.684;23.252;2023-12-20T07:48:06;94340.13;;;-1.77;100.00
11339;BME280;5724;42.684;23.252;2023-12-20T07:50:32;94332.25;;;-1.63;100.00
11339;BME280;5724;42.684;23.252;2023-12-20T07:52:59;94333.38;;;-1.69;100.00
11339;BME280;5724;42.684;23.252;2023-12-20T07:55:26;94316.78;;;-1.71;100.00
11339;BME280;5724;42.684;23.252;2023-12-20T07:57:51;94324.84;;;-1.77;100.00
11339;BME280;5724;42.684;23.252;2023-12-20T08:00:17;94314.38;;;-1.44;100.00
11339;BME280;5724;42.684;23.252;2023-12-20T08:02:43;94329.31;;;-1.38;100.00
11339;BME280;5724;42.684;23.252;2023-12-20T08:05:09;94319.75;;;-1.44;100.00
11339;BME280;5724;42.684;23.252;2023-12-20T08:07:34;94304.72;;;-1.45;100.00
11339;BME280;5724;42.684;23.252;2023-12-20T08:10:00;94284.47;;;-1.08;100.00
11339;BME280;5724;42.684;23.252;2023-12-20T08:12:26;94318.69;;;-0.57;100.00
11339;BME280;5724;42.684;23.252;2023-12-20T08:14:53;94318.97;;;-0.59;100.00
11339;BME280;5724;42.684;23.252;2023-12-20T08:17:19;94269.50;;;-0.53;100.00
11339;BME280;5724;42.684;23.252;2023-12-20T08:19:44;94311.03;;;-0.13;100.00
11339;BME280;5724;42.684;23.252;2023-12-20T08:22:11;94304.09;;;-0.14;100.00
11339;BME280;5724;42.684;23.252;2023-12-20T08:24:37;94305.25;;;-0.20;100.00
11339;BME280;5724;42.684;23.252;2023-12-20T08:27:02;94299.47;;;-0.27;100.00
11339;BME280;5724;42.684;23.252;2023-12-20T08:29:28;94305.38;;;-0.11;100.00
11339;BME280;5724;42.684;23.252;2023-12-20T08:31:55;94300.47;;;-0.23;100.00
11339;BME280;5724;42.684;23.252;2023-12-20T08:34:21;94298.88;;;-0.43;100.00
11339;BME280;5724;42.684;23.252;2023-12-20T08:36:46;94293.66;;;-0.53;100.00
11339;BME280;5724;42.684;23.252;2023-12-20T08:39:12;94281.69;;;-0.42;100.00
11339;BME280;5724;42.684;23.252;2023-12-20T08:41:38;94286.19;;;-0.37;100.00
11339;BME280;5724;42.684;23.252;2023-12-20T08:44:09;94283.75;;;-0.20;100.00
11339;BME280;5724;42.684;23.252;2023-12-20T08:46:35;94275.38;;;-0.32;100.00
11339;BME280;5724;42.684;23.252;2023-12-20T08:49:03;94276.16;;;-0.32;100.00
11339;BME280;5724;42.684;23.252;2023-12-20T08:51:28;94265.03;;;-0.57;100.00
11339;BME280;5724;42.684;23.252;2023-12-20T08:53:54;94273.13;;;-0.63;100.00
11339;BME280;5724;42.684;23.252;2023-12-20T08:56:20;94272.94;;;-0.66;100.00
11339;BME280;5724;42.684;23.252;2023-12-20T08:58:46;94256.53;;;-0.65;100.00
11339;BME280;5724;42.684;23.252;2023-12-20T09:01:12;94257.88;;;-0.48;100.00
11339;BME280;5724;42.684;23.252;2023-12-20T09:03:39;94242.88;;;-0.49;100.00
11339;BME280;5724;42.684;23.252;2023-12-20T09:06:04;94252.00;;;-0.32;100.00
11339;BME280;5724;42.684;23.252;2023-12-20T09:08:30;94240.97;;;-0.30;100.00
11339;BME280;5724;42.684;23.252;2023-12-20T09:10:56;94231.50;;;-0.09;100.00
11339;BME280;5724;42.684;23.252;2023-12-20T09:13:22;94219.56;;;-0.16;100.00
11339;BME280;5724;42.684;23.252;2023-12-20T09:15:52;94210.72;;;-0.03;100.00
11339;BME280;5724;42.684;23.252;2023-12-20T09:18:19;94209.06;;;0.15;100.00
11339;BME280;5724;42.684;23.252;2023-12-20T09:20:46;94194.91;;;0.09;100.00
11339;BME280;5724;42.684;23.252;2023-12-20T09:23:12;94196.50;;;-0.04;100.00
11339;BME280;5724;42.684;23.252;2023-12-20T09:25:38;94183.97;;;0.06;100.00
11339;BME280;5724;42.684;23.252;2023-12-20T09:28:04;94183.09;;;0.10;100.00
11339;BME280;5724;42.684;23.252;2023-12-20T09:30:30;94183.50;;;0.17;100.00
11339;BME280;5724;42.684;23.252;2023-12-20T09:32:57;94179.41;;;0.06;100.00
11339;BME280;5724;42.684;23.252;2023-12-20T09:35:23;94168.88;;;0.10;100.00
11339;BME280;5724;42.684;23.252;2023-12-20T09:37:49;94169.25;;;0.03;100.00
11339;BME280;5724;42.684;23.252;2023-12-20T09:40:18;94167.28;;;0.22;100.00
11339;BME280;5724;42.684;23.252;2023-12-20T09:42:57;94159.53;;;0.21;100.00
11339;BME280;5724;42.684;23.252;2023-12-20T09:45:24;94153.84;;;0.36;100.00
11339;BME280;5724;42.684;23.252;2023-12-20T09:47:50;94147.75;;;0.44;100.00
11339;BME280;5724;42.684;23.252;2023-12-20T09:50:19;94142.56;;;0.62;100.00
11339;BME280;5724;42.684;23.252;2023-12-20T09:52:51;94147.56;;;0.68;100.00
11339;BME280;5724;42.684;23.252;2023-12-20T09:55:20;94142.34;;;0.72;100.00
11339;BME280;5724;42.684;23.252;2023-12-20T09:57:46;94122.94;;;0.75;100.00
11339;BME280;5724;42.684;23.252;2023-12-20T10:00:13;94129.94;;;0.98;100.00
11339;BME280;5724;42.684;23.252;2023-12-20T10:02:44;94129.25;;;1.06;100.00
11339;BME280;5724;42.684;23.252;2023-12-20T10:05:17;94132.41;;;1.08;100.00
11339;BME280;5724;42.684;23.252;2023-12-20T10:07:46;94127.22;;;1.34;100.00
11339;BME280;5724;42.684;23.252;2023-12-20T10:10:13;94131.78;;;1.34;100.00
11339;BME280;5724;42.684;23.252;2023-12-20T10:13:00;94128.75;;;1.27;100.00
11339;BME280;5724;42.684;23.252;2023-12-20T10:15:26;94118.22;;;1.39;100.00
11339;BME280;5724;42.684;23.252;2023-12-20T10:17:52;94111.84;;;1.35;100.00
11339;BME280;5724;42.684;23.252;2023-12-20T10:20:17;94113.16;;;1.37;100.00
11339;BME280;5724;42.684;23.252;2023-12-20T10:22:43;94100.00;;;1.13;100.00
11339;BME280;5724;42.684;23.252;2023-12-20T10:25:08;94096.31;;;1.32;100.00
11339;BME280;5724;42.684;23.252;2023-12-20T10:27:36;94089.84;;;1.10;100.00
11339;BME280;5724;42.684;23.252;2023-12-20T10:30:01;94087.03;;;1.38;100.00
11339;BME280;5724;42.684;23.252;2023-12-20T10:32:27;94080.19;;;1.63;100.00
11339;BME280;5724;42.684;23.252;2023-12-20T10:34:55;94077.72;;;2.06;100.00
11339;BME280;5724;42.684;23.252;2023-12-20T10:37:22;94073.69;;;2.35;100.00
11339;BME280;5724;42.684;23.252;2023-12-20T10:39:53;94076.44;;;2.61;100.00
11339;BME280;5724;42.684;23.252;2023-12-20T10:42:26;94055.16;;;2.59;100.00
11339;BME280;5724;42.684;23.252;2023-12-20T10:44:52;94060.25;;;2.78;100.00
11339;BME280;5724;42.684;23.252;2023-12-20T10:47:20;94044.88;;;2.96;100.00
11339;BME280;5724;42.684;23.252;2023-12-20T10:49:47;94052.63;;;3.06;100.00
11339;BME280;5724;42.684;23.252;2023-12-20T10:52:13;94041.97;;;3.18;100.00
11339;BME280;5724;42.684;23.252;2023-12-20T10:54:40;94058.19;;;3.18;100.00
11339;BME280;5724;42.684;23.252;2023-12-20T10:57:06;94047.69;;;3.42;100.00
11339;BME280;5724;42.684;23.252;2023-12-20T10:59:39;94045.41;;;3.62;100.00
11339;BME280;5724;42.684;23.252;2023-12-20T11:02:06;94053.50;;;3.70;100.00
11339;BME280;5724;42.684;23.252;2023-12-20T11:07:36;94015.56;;;3.96;99.32
11339;BME280;5724;42.684;23.252;2023-12-20T11:13:43;94019.59;;;4.70;95.80
11339;BME280;5724;42.684;23.252;2023-12-20T11:16:10;94019.34;;;4.84;94.31
11339;BME280;5724;42.684;23.252;2023-12-20T11:18:36;94000.22;;;5.01;93.39
11339;BME280;5724;42.684;23.252;2023-12-20T11:21:04;94016.25;;;5.27;93.16
11339;BME280;5724;42.684;23.252;2023-12-20T11:23:31;94008.00;;;5.24;92.34
11339;BME280;5724;42.684;23.252;2023-12-20T11:25:59;94003.53;;;5.40;92.10
11339;BME280;5724;42.684;23.252;2023-12-20T11:28:26;93996.75;;;5.34;90.57
11339;BME280;5724;42.684;23.252;2023-12-20T11:30:56;93982.03;;;5.56;89.95
11339;BME280;5724;42.684;23.252;2023-12-20T11:33:25;93981.50;;;5.74;88.53
11339;BME280;5724;42.684;23.252;2023-12-20T11:35:52;93970.19;;;5.85;88.14
11339;BME280;5724;42.684;23.252;2023-12-20T11:38:20;93964.59;;;6.02;87.26
11339;BME280;5724;42.684;23.252;2023-12-20T11:40:49;93955.34;;;6.27;85.93
11339;BME280;5724;42.684;23.252;2023-12-20T11:43:31;93955.75;;;6.42;85.01
11339;BME280;5724;42.684;23.252;2023-12-20T11:46:04;93946.47;;;6.43;83.93
11339;BME280;5724;42.684;23.252;2023-12-20T11:48:39;93945.47;;;6.35;83.75
11339;BME280;5724;42.684;23.252;2023-12-20T11:51:10;93939.16;;;6.31;84.25
11339;BME280;5724;42.684;23.252;2023-12-20T11:53:36;93930.34;;;6.22;85.03
11339;BME280;5724;42.684;23.252;2023-12-20T11:56:03;93930.66;;;6.32;84.43
11339;BME280;5724;42.684;23.252;2023-12-20T11:58:29;93920.50;;;6.17;83.98
11339;BME280;5724;42.684;23.252;2023-12-20T12:00:56;93921.97;;;6.27;83.32
11339;BME280;5724;42.684;23.252;2023-12-20T12:03:24;93916.28;;;6.44;83.70
11339;BME280;5724;42.684;23.252;2023-12-20T12:05:50;93898.53;;;6.35;83.50
11339;BME280;5724;42.684;23.252;2023-12-20T12:08:17;93884.91;;;6.19;83.28
11339;BME280;5724;42.684;23.252;2023-12-20T12:10:43;93887.94;;;6.29;83.12
11339;BME280;5724;42.684;23.252;2023-12-20T12:13:10;93886.25;;;6.37;83.86
11339;BME280;5724;42.684;23.252;2023-12-20T12:15:36;93886.56;;;6.48;84.28
11339;BME280;5724;42.684;23.252;2023-12-20T12:18:04;93881.66;;;5.64;84.97
11339;BME280;5724;42.684;23.252;2023-12-20T12:20:31;93872.94;;;6.08;84.21
11339;BME280;5724;42.684;23.252;2023-12-20T12:23:06;93872.34;;;6.26;83.92
11339;BME280;5724;42.684;23.252;2023-12-20T12:25:34;93874.38;;;6.29;84.20
11339;BME280;5724;42.684;23.252;2023-12-20T12:28:00;93878.94;;;6.13;84.51
11339;BME280;5724;42.684;23.252;2023-12-20T12:30:26;93867.81;;;6.30;83.91
11339;BME280;5724;42.684;23.252;2023-12-20T12:32:53;93874.13;;;6.35;83.25
11339;BME280;5724;42.684;23.252;2023-12-20T12:35:19;93873.75;;;6.08;83.68
11339;BME280;5724;42.684;23.252;2023-12-20T12:37:45;93871.22;;;6.15;84.29
11339;BME280;5724;42.684;23.252;2023-12-20T12:40:16;93864.81;;;5.95;84.01
11339;BME280;5724;42.684;23.252;2023-12-20T12:42:45;93871.94;;;6.00;83.92
11339;BME280;5724;42.684;23.252;2023-12-20T12:45:11;93876.03;;;5.94;84.27
11339;BME280;5724;42.684;23.252;2023-12-20T12:47:37;93853.97;;;5.83;84.63
11339;BME280;5724;42.684;23.252;2023-12-20T12:50:03;93869.69;;;5.90;84.66
11339;BME280;5724;42.684;23.252;2023-12-20T12:52:30;93862.69;;;5.52;86.42
11339;BME280;5724;42.684;23.252;2023-12-20T12:54:56;93865.06;;;5.41;86.01
11339;BME280;5724;42.684;23.252;2023-12-20T12:57:21;93851.31;;;5.01;87.79